sensor_id;sensor_type;location;lat;lon;timestamp;P1;durP1;ratioP1;P2;durP2;ratioP2
23474;SDS011;11910;52.086;21.066;2022-07-29T00:00:12;4.10;;;3.45;;
23474;SDS011;11910;52.086;21.066;2022-07-29T00:02:38;5.68;;;3.38;;
23474;SDS011;11910;52.086;21.066;2022-07-29T00:05:04;6.20;;;3.60;;
23474;SDS011;11910;52.086;21.066;2022-07-29T00:07:30;5.00;;;3.42;;
23474;SDS011;11910;52.086;21.066;2022-07-29T00:09:56;4.28;;;3.67;;
23474;SDS011;11910;52.086;21.066;2022-07-29T00:12:23;7.18;;;4.15;;
23474;SDS011;11910;52.086;21.066;2022-07-29T00:14:50;6.18;;;4.20;;
23474;SDS011;11910;52.086;21.066;2022-07-29T00:17:16;5.40;;;3.75;;
23474;SDS011;11910;52.086;21.066;2022-07-29T00:19:42;6.18;;;3.97;;
23474;SDS011;11910;52.086;21.066;2022-07-29T00:22:07;4.82;;;3.25;;
23474;SDS011;11910;52.086;21.066;2022-07-29T00:24:33;7.03;;;3.20;;
23474;SDS011;11910;52.086;21.066;2022-07-29T00:26:59;7.13;;;3.50;;
23474;SDS011;11910;52.086;21.066;2022-07-29T00:29:24;4.38;;;3.78;;
23474;SDS011;11910;52.086;21.066;2022-07-29T00:31:50;3.50;;;3.13;;
23474;SDS011;11910;52.086;21.066;2022-07-29T00:34:16;6.18;;;4.07;;
23474;SDS011;11910;52.086;21.066;2022-07-29T00:37:00;6.55;;;3.55;;
23474;SDS011;11910;52.086;21.066;2022-07-29T00:39:26;4.53;;;3.28;;
23474;SDS011;11910;52.086;21.066;2022-07-29T00:41:52;4.95;;;3.72;;
23474;SDS011;11910;52.086;21.066;2022-07-29T00:44:17;5.50;;;3.65;;
23474;SDS011;11910;52.086;21.066;2022-07-29T00:46:43;5.53;;;4.25;;
23474;SDS011;11910;52.086;21.066;2022-07-29T00:49:08;6.32;;;4.35;;
23474;SDS011;11910;52.086;21.066;2022-07-29T00:51:35;4.68;;;3.53;;
23474;SDS011;11910;52.086;21.066;2022-07-29T00:54:02;6.25;;;3.90;;
23474;SDS011;11910;52.086;21.066;2022-07-29T00:56:32;6.05;;;3.50;;
23474;SDS011;11910;52.086;21.066;2022-07-29T00:58:58;6.65;;;4.05;;
23474;SDS011;11910;52.086;21.066;2022-07-29T01:01:25;5.70;;;4.00;;
23474;SDS011;11910;52.086;21.066;2022-07-29T01:03:51;4.32;;;3.60;;
23474;SDS011;11910;52.086;21.066;2022-07-29T01:06:17;7.13;;;4.07;;
23474;SDS011;11910;52.086;21.066;2022-07-29T01:08:47;4.95;;;3.90;;
23474;SDS011;11910;52.086;21.066;2022-07-29T01:11:13;7.05;;;4.00;;
23474;SDS011;11910;52.086;21.066;2022-07-29T01:13:42;6.43;;;3.60;;
23474;SDS011;11910;52.086;21.066;2022-07-29T01:16:21;6.82;;;4.70;;
23474;SDS011;11910;52.086;21.066;2022-07-29T01:18:55;4.80;;;3.60;;
23474;SDS011;11910;52.086;21.066;2022-07-29T01:21:59;6.55;;;3.58;;
23474;SDS011;11910;52.086;21.066;2022-07-29T01:24:29;7.68;;;3.60;;
23474;SDS011;11910;52.086;21.066;2022-07-29T01:27:11;7.07;;;4.50;;
23474;SDS011;11910;52.086;21.066;2022-07-29T01:29:54;5.88;;;4.53;;
23474;SDS011;11910;52.086;21.066;2022-07-29T01:32:24;4.70;;;4.07;;
23474;SDS011;11910;52.086;21.066;2022-07-29T01:40:04;6.93;;;5.05;;
23474;SDS011;11910;52.086;21.066;2022-07-29T01:42:38;10.52;;;5.45;;
23474;SDS011;11910;52.086;21.066;2022-07-29T01:45:15;6.85;;;4.82;;
23474;SDS011;11910;52.086;21.066;2022-07-29T01:48:02;7.47;;;4.45;;
23474;SDS011;11910;52.086;21.066;2022-07-29T01:50:42;9.43;;;4.68;;
23474;SDS011;11910;52.086;21.066;2022-07-29T01:53:24;13.88;;;6.75;;
23474;SDS011;11910;52.086;21.066;2022-07-29T01:55:56;11.98;;;5.75;;
23474;SDS011;11910;52.086;21.066;2022-07-29T01:58:24;9.10;;;4.35;;
23474;SDS011;11910;52.086;21.066;2022-07-29T02:00:50;6.90;;;4.50;;
23474;SDS011;11910;52.086;21.066;2022-07-29T02:03:18;7.65;;;4.20;;
23474;SDS011;11910;52.086;21.066;2022-07-29T02:05:45;7.07;;;4.25;;
23474;SDS011;11910;52.086;21.066;2022-07-29T02:08:13;7.85;;;4.70;;
23474;SDS011;11910;52.086;21.066;2022-07-29T02:10:40;7.50;;;4.00;;
23474;SDS011;11910;52.086;21.066;2022-07-29T02:13:09;5.05;;;4.03;;
23474;SDS011;11910;52.086;21.066;2022-07-29T02:15:36;4.93;;;4.03;;
23474;SDS011;11910;52.086;21.066;2022-07-29T02:18:18;5.38;;;4.13;;
23474;SDS011;11910;52.086;21.066;2022-07-29T02:20:48;6.50;;;4.53;;
23474;SDS011;11910;52.086;21.066;2022-07-29T02:23:20;4.38;;;3.92;;
23474;SDS011;11910;52.086;21.066;2022-07-29T02:25:52;6.88;;;4.90;;
23474;SDS011;11910;52.086;21.066;2022-07-29T02:28:21;5.95;;;4.53;;
23474;SDS011;11910;52.086;21.066;2022-07-29T02:30:50;10.15;;;4.30;;
23474;SDS011;11910;52.086;21.066;2022-07-29T02:33:18;6.78;;;4.85;;
23474;SDS011;11910;52.086;21.066;2022-07-29T02:35:46;7.25;;;4.45;;
23474;SDS011;11910;52.086;21.066;2022-07-29T02:38:14;5.75;;;4.50;;
23474;SDS011;11910;52.086;21.066;2022-07-29T02:41:00;6.95;;;4.55;;
23474;SDS011;11910;52.086;21.066;2022-07-29T02:43:30;6.13;;;4.63;;
23474;SDS011;11910;52.086;21.066;2022-07-29T02:45:58;6.03;;;4.30;;
23474;SDS011;11910;52.086;21.066;2022-07-29T02:48:33;7.03;;;4.13;;
23474;SDS011;11910;52.086;21.066;2022-07-29T02:51:06;5.85;;;4.30;;
23474;SDS011;11910;52.086;21.066;2022-07-29T02:53:37;6.75;;;4.35;;
23474;SDS011;11910;52.086;21.066;2022-07-29T02:56:06;7.05;;;4.55;;
23474;SDS011;11910;52.086;21.066;2022-07-29T02:58:38;7.22;;;4.35;;
23474;SDS011;11910;52.086;21.066;2022-07-29T03:01:11;6.75;;;4.72;;
23474;SDS011;11910;52.086;21.066;2022-07-29T03:03:40;6.05;;;4.75;;
23474;SDS011;11910;52.086;21.066;2022-07-29T03:06:09;5.43;;;4.55;;
23474;SDS011;11910;52.086;21.066;2022-07-29T03:08:37;5.60;;;4.45;;
23474;SDS011;11910;52.086;21.066;2022-07-29T03:11:03;5.60;;;4.22;;
23474;SDS011;11910;52.086;21.066;2022-07-29T03:13:29;7.95;;;4.90;;
23474;SDS011;11910;52.086;21.066;2022-07-29T03:15:55;7.03;;;5.00;;
23474;SDS011;11910;52.086;21.066;2022-07-29T03:18:22;8.50;;;5.30;;
23474;SDS011;11910;52.086;21.066;2022-07-29T03:20:48;8.25;;;4.90;;
23474;SDS011;11910;52.086;21.066;2022-07-29T03:23:18;7.22;;;5.13;;
23474;SDS011;11910;52.086;21.066;2022-07-29T03:25:46;7.93;;;5.13;;
23474;SDS011;11910;52.086;21.066;2022-07-29T03:28:12;5.78;;;4.57;;
23474;SDS011;11910;52.086;21.066;2022-07-29T03:30:38;6.97;;;4.90;;
23474;SDS011;11910;52.086;21.066;2022-07-29T03:33:03;6.70;;;4.30;;
23474;SDS011;11910;52.086;21.066;2022-07-29T03:35:29;6.32;;;4.93;;
23474;SDS011;11910;52.086;21.066;2022-07-29T03:37:56;7.40;;;5.00;;
23474;SDS011;11910;52.086;21.066;2022-07-29T03:40:24;8.10;;;5.32;;
23474;SDS011;11910;52.086;21.066;2022-07-29T03:42:55;7.45;;;4.40;;
23474;SDS011;11910;52.086;21.066;2022-07-29T03:45:23;6.28;;;4.70;;
23474;SDS011;11910;52.086;21.066;2022-07-29T03:47:51;8.60;;;5.03;;
23474;SDS011;11910;52.086;21.066;2022-07-29T03:50:21;7.00;;;5.20;;
23474;SDS011;11910;52.086;21.066;2022-07-29T03:52:48;11.75;;;5.45;;
23474;SDS011;11910;52.086;21.066;2022-07-29T03:55:14;6.35;;;5.10;;
23474;SDS011;11910;52.086;21.066;2022-07-29T03:57:40;6.05;;;4.75;;
23474;SDS011;11910;52.086;21.066;2022-07-29T04:00:08;8.20;;;4.97;;
23474;SDS011;11910;52.086;21.066;2022-07-29T04:02:34;7.38;;;4.75;;
23474;SDS011;11910;52.086;21.066;2022-07-29T04:05:01;6.07;;;4.70;;
23474;SDS011;11910;52.086;21.066;2022-07-29T04:07:27;8.82;;;5.07;;
23474;SDS011;11910;52.086;21.066;2022-07-29T04:09:54;8.18;;;4.60;;
23474;SDS011;11910;52.086;21.066;2022-07-29T04:12:19;6.75;;;4.68;;
23474;SDS011;11910;52.086;21.066;2022-07-29T04:14:46;7.68;;;4.05;;
23474;SDS011;11910;52.086;21.066;2022-07-29T04:17:11;9.52;;;4.25;;
23474;SDS011;11910;52.086;21.066;2022-07-29T04:19:37;6.70;;;4.80;;
23474;SDS011;11910;52.086;21.066;2022-07-29T04:22:03;5.15;;;3.85;;
23474;SDS011;11910;52.086;21.066;2022-07-29T04:24:29;8.50;;;3.85;;
23474;SDS011;11910;52.086;21.066;2022-07-29T04:26:55;7.35;;;3.60;;
23474;SDS011;11910;52.086;21.066;2022-07-29T04:29:20;5.45;;;3.50;;
23474;SDS011;11910;52.086;21.066;2022-07-29T04:31:46;5.40;;;3.40;;
23474;SDS011;11910;52.086;21.066;2022-07-29T04:34:12;4.25;;;3.00;;
23474;SDS011;11910;52.086;21.066;2022-07-29T04:36:38;7.88;;;3.15;;
23474;SDS011;11910;52.086;21.066;2022-07-29T04:39:04;5.28;;;3.53;;
23474;SDS011;11910;52.086;21.066;2022-07-29T04:41:30;5.40;;;3.38;;
23474;SDS011;11910;52.086;21.066;2022-07-29T04:43:56;5.05;;;3.38;;
23474;SDS011;11910;52.086;21.066;2022-07-29T04:46:22;7.35;;;3.10;;
23474;SDS011;11910;52.086;21.066;2022-07-29T04:48:47;8.05;;;3.30;;
23474;SDS011;11910;52.086;21.066;2022-07-29T04:51:14;6.78;;;3.30;;
23474;SDS011;11910;52.086;21.066;2022-07-29T04:53:40;6.85;;;3.22;;
23474;SDS011;11910;52.086;21.066;2022-07-29T04:56:06;6.78;;;3.17;;
23474;SDS011;11910;52.086;21.066;2022-07-29T04:58:33;5.75;;;2.55;;
23474;SDS011;11910;52.086;21.066;2022-07-29T05:01:00;5.07;;;2.70;;
23474;SDS011;11910;52.086;21.066;2022-07-29T05:03:25;3.40;;;2.63;;
23474;SDS011;11910;52.086;21.066;2022-07-29T05:05:51;6.95;;;2.90;;
23474;SDS011;11910;52.086;21.066;2022-07-29T05:08:17;3.83;;;2.70;;
23474;SDS011;11910;52.086;21.066;2022-07-29T05:10:42;7.30;;;2.90;;
23474;SDS011;11910;52.086;21.066;2022-07-29T05:13:08;5.88;;;2.45;;
23474;SDS011;11910;52.086;21.066;2022-07-29T05:15:37;7.72;;;2.72;;
23474;SDS011;11910;52.086;21.066;2022-07-29T05:18:03;4.55;;;2.50;;
23474;SDS011;11910;52.086;21.066;2022-07-29T05:20:29;9.85;;;2.72;;
23474;SDS011;11910;52.086;21.066;2022-07-29T05:22:59;5.68;;;2.45;;
23474;SDS011;11910;52.086;21.066;2022-07-29T05:25:26;3.83;;;2.58;;
23474;SDS011;11910;52.086;21.066;2022-07-29T05:27:53;5.00;;;2.30;;
23474;SDS011;11910;52.086;21.066;2022-07-29T05:30:19;3.95;;;2.30;;
23474;SDS011;11910;52.086;21.066;2022-07-29T05:32:45;4.93;;;2.45;;
23474;SDS011;11910;52.086;21.066;2022-07-29T05:35:11;11.68;;;3.60;;
23474;SDS011;11910;52.086;21.066;2022-07-29T05:37:37;4.93;;;2.30;;
23474;SDS011;11910;52.086;21.066;2022-07-29T05:40:03;7.45;;;2.90;;
23474;SDS011;11910;52.086;21.066;2022-07-29T05:42:29;3.45;;;2.00;;
23474;SDS011;11910;52.086;21.066;2022-07-29T05:44:54;3.45;;;1.95;;
23474;SDS011;11910;52.086;21.066;2022-07-29T05:47:20;3.35;;;2.00;;
23474;SDS011;11910;52.086;21.066;2022-07-29T05:49:46;4.38;;;1.90;;
23474;SDS011;11910;52.086;21.066;2022-07-29T05:52:13;4.28;;;2.00;;
23474;SDS011;11910;52.086;21.066;2022-07-29T05:54:39;5.85;;;2.08;;
23474;SDS011;11910;52.086;21.066;2022-07-29T05:57:05;7.30;;;2.00;;
23474;SDS011;11910;52.086;21.066;2022-07-29T05:59:31;6.03;;;2.05;;
23474;SDS011;11910;52.086;21.066;2022-07-29T06:02:03;3.53;;;1.98;;
23474;SDS011;11910;52.086;21.066;2022-07-29T06:04:30;4.00;;;1.98;;
23474;SDS011;11910;52.086;21.066;2022-07-29T06:06:56;2.20;;;1.50;;
23474;SDS011;11910;52.086;21.066;2022-07-29T06:09:22;5.03;;;1.80;;
23474;SDS011;11910;52.086;21.066;2022-07-29T06:11:48;9.48;;;2.10;;
23474;SDS011;11910;52.086;21.066;2022-07-29T06:14:14;3.50;;;1.42;;
23474;SDS011;11910;52.086;21.066;2022-07-29T06:16:39;3.00;;;1.58;;
23474;SDS011;11910;52.086;21.066;2022-07-29T06:19:05;5.07;;;1.75;;
23474;SDS011;11910;52.086;21.066;2022-07-29T06:21:31;6.17;;;1.87;;
23474;SDS011;11910;52.086;21.066;2022-07-29T06:23:57;3.13;;;1.40;;
23474;SDS011;11910;52.086;21.066;2022-07-29T06:26:22;3.40;;;1.40;;
23474;SDS011;11910;52.086;21.066;2022-07-29T06:28:48;4.00;;;1.52;;
23474;SDS011;11910;52.086;21.066;2022-07-29T06:31:14;4.28;;;1.10;;
23474;SDS011;11910;52.086;21.066;2022-07-29T06:33:40;2.33;;;1.20;;
23474;SDS011;11910;52.086;21.066;2022-07-29T06:36:05;3.67;;;1.15;;
23474;SDS011;11910;52.086;21.066;2022-07-29T06:38:32;5.53;;;1.30;;
23474;SDS011;11910;52.086;21.066;2022-07-29T06:40:59;2.30;;;1.30;;
23474;SDS011;11910;52.086;21.066;2022-07-29T06:43:35;4.60;;;1.38;;
23474;SDS011;11910;52.086;21.066;2022-07-29T06:46:06;3.15;;;1.20;;
23474;SDS011;11910;52.086;21.066;2022-07-29T06:48:34;4.22;;;1.33;;
23474;SDS011;11910;52.086;21.066;2022-07-29T06:51:01;4.00;;;1.30;;
23474;SDS011;11910;52.086;21.066;2022-07-29T06:53:28;4.65;;;1.50;;
23474;SDS011;11910;52.086;21.066;2022-07-29T06:55:54;3.55;;;1.50;;
23474;SDS011;11910;52.086;21.066;2022-07-29T06:58:20;1.90;;;1.15;;
23474;SDS011;11910;52.086;21.066;2022-07-29T07:00:46;4.82;;;1.70;;
23474;SDS011;11910;52.086;21.066;2022-07-29T07:03:13;3.10;;;1.40;;
23474;SDS011;11910;52.086;21.066;2022-07-29T07:05:40;3.00;;;1.45;;
23474;SDS011;11910;52.086;21.066;2022-07-29T07:08:06;3.00;;;1.60;;
23474;SDS011;11910;52.086;21.066;2022-07-29T07:10:33;5.35;;;1.50;;
23474;SDS011;11910;52.086;21.066;2022-07-29T07:12:59;3.40;;;1.70;;
23474;SDS011;11910;52.086;21.066;2022-07-29T07:15:26;2.05;;;1.20;;
23474;SDS011;11910;52.086;21.066;2022-07-29T07:17:52;3.90;;;1.48;;
23474;SDS011;11910;52.086;21.066;2022-07-29T07:20:18;4.43;;;1.40;;
23474;SDS011;11910;52.086;21.066;2022-07-29T07:22:44;4.53;;;1.67;;
23474;SDS011;11910;52.086;21.066;2022-07-29T07:25:10;2.15;;;1.35;;
23474;SDS011;11910;52.086;21.066;2022-07-29T07:27:37;3.78;;;1.58;;
23474;SDS011;11910;52.086;21.066;2022-07-29T07:30:04;5.10;;;1.42;;
23474;SDS011;11910;52.086;21.066;2022-07-29T07:32:31;2.65;;;1.27;;
23474;SDS011;11910;52.086;21.066;2022-07-29T07:35:00;4.10;;;1.48;;
23474;SDS011;11910;52.086;21.066;2022-07-29T07:37:28;5.97;;;1.50;;
23474;SDS011;11910;52.086;21.066;2022-07-29T07:39:53;3.28;;;1.15;;
23474;SDS011;11910;52.086;21.066;2022-07-29T07:42:19;3.28;;;1.40;;
23474;SDS011;11910;52.086;21.066;2022-07-29T07:44:45;3.20;;;1.30;;
23474;SDS011;11910;52.086;21.066;2022-07-29T07:47:13;2.28;;;1.48;;
23474;SDS011;11910;52.086;21.066;2022-07-29T07:49:39;8.48;;;1.60;;
23474;SDS011;11910;52.086;21.066;2022-07-29T07:52:05;5.35;;;1.40;;
23474;SDS011;11910;52.086;21.066;2022-07-29T07:54:31;1.60;;;1.25;;
23474;SDS011;11910;52.086;21.066;2022-07-29T07:56:57;4.97;;;1.33;;
23474;SDS011;11910;52.086;21.066;2022-07-29T07:59:23;2.40;;;1.38;;
23474;SDS011;11910;52.086;21.066;2022-07-29T08:01:49;4.53;;;1.30;;
23474;SDS011;11910;52.086;21.066;2022-07-29T08:04:15;3.45;;;1.30;;
23474;SDS011;11910;52.086;21.066;2022-07-29T08:06:41;3.65;;;1.30;;
23474;SDS011;11910;52.086;21.066;2022-07-29T08:09:07;4.45;;;1.40;;
23474;SDS011;11910;52.086;21.066;2022-07-29T08:11:33;3.13;;;1.30;;
23474;SDS011;11910;52.086;21.066;2022-07-29T08:13:59;3.53;;;1.42;;
23474;SDS011;11910;52.086;21.066;2022-07-29T08:16:26;1.70;;;1.20;;
23474;SDS011;11910;52.086;21.066;2022-07-29T08:18:52;4.05;;;1.30;;
23474;SDS011;11910;52.086;21.066;2022-07-29T08:21:22;5.15;;;2.95;;
23474;SDS011;11910;52.086;21.066;2022-07-29T08:23:49;3.00;;;1.40;;
23474;SDS011;11910;52.086;21.066;2022-07-29T08:26:18;3.50;;;1.40;;
23474;SDS011;11910;52.086;21.066;2022-07-29T08:28:45;5.68;;;1.58;;
23474;SDS011;11910;52.086;21.066;2022-07-29T08:31:13;2.15;;;1.13;;
23474;SDS011;11910;52.086;21.066;2022-07-29T08:33:39;2.92;;;1.30;;
23474;SDS011;11910;52.086;21.066;2022-07-29T08:36:05;2.15;;;1.20;;
23474;SDS011;11910;52.086;21.066;2022-07-29T08:38:31;2.05;;;1.20;;
23474;SDS011;11910;52.086;21.066;2022-07-29T08:40:58;5.32;;;1.60;;
23474;SDS011;11910;52.086;21.066;2022-07-29T08:43:25;3.63;;;1.42;;
23474;SDS011;11910;52.086;21.066;2022-07-29T08:45:51;3.40;;;1.45;;
23474;SDS011;11910;52.086;21.066;2022-07-29T08:48:18;3.20;;;1.35;;
23474;SDS011;11910;52.086;21.066;2022-07-29T08:50:46;3.53;;;1.55;;
23474;SDS011;11910;52.086;21.066;2022-07-29T08:53:13;4.35;;;1.27;;
23474;SDS011;11910;52.086;21.066;2022-07-29T08:55:44;5.40;;;1.50;;
23474;SDS011;11910;52.086;21.066;2022-07-29T08:58:11;6.38;;;1.55;;
23474;SDS011;11910;52.086;21.066;2022-07-29T09:00:41;7.10;;;1.50;;
23474;SDS011;11910;52.086;21.066;2022-07-29T09:03:12;3.97;;;1.50;;
23474;SDS011;11910;52.086;21.066;2022-07-29T09:05:45;3.97;;;1.30;;
23474;SDS011;11910;52.086;21.066;2022-07-29T09:08:12;3.83;;;1.30;;
23474;SDS011;11910;52.086;21.066;2022-07-29T09:10:39;2.67;;;1.30;;
23474;SDS011;11910;52.086;21.066;2022-07-29T09:13:05;4.60;;;1.58;;
23474;SDS011;11910;52.086;21.066;2022-07-29T09:15:31;3.42;;;1.40;;
23474;SDS011;11910;52.086;21.066;2022-07-29T09:17:56;4.15;;;1.55;;
23474;SDS011;11910;52.086;21.066;2022-07-29T09:20:24;2.83;;;1.50;;
23474;SDS011;11910;52.086;21.066;2022-07-29T09:22:51;5.07;;;1.45;;
23474;SDS011;11910;52.086;21.066;2022-07-29T09:28:09;8.70;;;1.63;;
23474;SDS011;11910;52.086;21.066;2022-07-29T09:30:39;2.72;;;1.40;;
23474;SDS011;11910;52.086;21.066;2022-07-29T09:33:20;3.20;;;1.48;;
23474;SDS011;11910;52.086;21.066;2022-07-29T09:35:58;6.22;;;1.52;;
23474;SDS011;11910;52.086;21.066;2022-07-29T09:38:31;4.05;;;1.67;;
23474;SDS011;11910;52.086;21.066;2022-07-29T09:40:58;49.00;;;4.20;;
23474;SDS011;11910;52.086;21.066;2022-07-29T09:43:25;10.40;;;1.83;;
23474;SDS011;11910;52.086;21.066;2022-07-29T09:45:51;4.85;;;1.50;;
23474;SDS011;11910;52.086;21.066;2022-07-29T09:48:17;6.00;;;1.50;;
23474;SDS011;11910;52.086;21.066;2022-07-29T09:50:44;5.75;;;1.40;;
23474;SDS011;11910;52.086;21.066;2022-07-29T09:53:11;6.93;;;1.50;;
23474;SDS011;11910;52.086;21.066;2022-07-29T09:55:54;3.22;;;1.30;;
23474;SDS011;11910;52.086;21.066;2022-07-29T09:58:21;3.92;;;1.52;;
23474;SDS011;11910;52.086;21.066;2022-07-29T10:00:47;3.60;;;1.30;;
23474;SDS011;11910;52.086;21.066;2022-07-29T10:03:14;3.85;;;1.25;;
23474;SDS011;11910;52.086;21.066;2022-07-29T10:05:41;3.08;;;1.30;;
23474;SDS011;11910;52.086;21.066;2022-07-29T10:08:07;4.43;;;1.17;;
23474;SDS011;11910;52.086;21.066;2022-07-29T10:10:35;4.78;;;1.40;;
23474;SDS011;11910;52.086;21.066;2022-07-29T10:13:03;5.40;;;1.65;;
23474;SDS011;11910;52.086;21.066;2022-07-29T10:15:35;3.45;;;1.40;;
23474;SDS011;11910;52.086;21.066;2022-07-29T10:18:04;5.50;;;1.33;;
23474;SDS011;11910;52.086;21.066;2022-07-29T10:20:31;2.75;;;1.20;;
23474;SDS011;11910;52.086;21.066;2022-07-29T10:22:57;4.15;;;1.52;;
23474;SDS011;11910;52.086;21.066;2022-07-29T10:25:23;4.65;;;1.40;;
23474;SDS011;11910;52.086;21.066;2022-07-29T10:27:50;4.88;;;1.70;;
23474;SDS011;11910;52.086;21.066;2022-07-29T10:30:16;4.72;;;2.00;;
23474;SDS011;11910;52.086;21.066;2022-07-29T10:32:58;3.05;;;1.77;;
23474;SDS011;11910;52.086;21.066;2022-07-29T10:41:33;12.63;;;1.77;;
23474;SDS011;11910;52.086;21.066;2022-07-29T10:47:22;3.08;;;1.30;;
23474;SDS011;11910;52.086;21.066;2022-07-29T10:49:58;3.92;;;1.20;;
23474;SDS011;11910;52.086;21.066;2022-07-29T10:55:48;3.03;;;1.17;;
23474;SDS011;11910;52.086;21.066;2022-07-29T11:00:46;3.58;;;1.17;;
23474;SDS011;11910;52.086;21.066;2022-07-29T11:06:10;4.35;;;1.40;;
23474;SDS011;11910;52.086;21.066;2022-07-29T11:08:36;2.92;;;1.00;;
23474;SDS011;11910;52.086;21.066;2022-07-29T11:13:50;3.65;;;1.10;;
23474;SDS011;11910;52.086;21.066;2022-07-29T11:16:17;1.45;;;1.10;;
23474;SDS011;11910;52.086;21.066;2022-07-29T11:21:38;3.88;;;1.10;;
23474;SDS011;11910;52.086;21.066;2022-07-29T11:24:15;3.72;;;1.30;;
23474;SDS011;11910;52.086;21.066;2022-07-29T11:29:33;2.28;;;1.00;;
23474;SDS011;11910;52.086;21.066;2022-07-29T11:32:13;1.80;;;1.20;;
23474;SDS011;11910;52.086;21.066;2022-07-29T11:34:41;2.55;;;1.27;;
23474;SDS011;11910;52.086;21.066;2022-07-29T11:39:39;1.77;;;1.00;;
23474;SDS011;11910;52.086;21.066;2022-07-29T11:47:27;4.30;;;1.25;;
23474;SDS011;11910;52.086;21.066;2022-07-29T11:49:55;3.75;;;1.23;;
23474;SDS011;11910;52.086;21.066;2022-07-29T11:52:22;3.47;;;1.30;;
23474;SDS011;11910;52.086;21.066;2022-07-29T11:54:49;4.78;;;1.10;;
23474;SDS011;11910;52.086;21.066;2022-07-29T11:57:16;2.45;;;1.27;;
23474;SDS011;11910;52.086;21.066;2022-07-29T11:59:45;2.13;;;1.00;;
23474;SDS011;11910;52.086;21.066;2022-07-29T12:02:12;4.85;;;1.00;;
23474;SDS011;11910;52.086;21.066;2022-07-29T12:07:35;2.45;;;1.08;;
23474;SDS011;11910;52.086;21.066;2022-07-29T12:10:02;4.63;;;1.05;;
23474;SDS011;11910;52.086;21.066;2022-07-29T12:12:28;3.40;;;1.10;;
23474;SDS011;11910;52.086;21.066;2022-07-29T12:14:54;2.65;;;1.00;;
23474;SDS011;11910;52.086;21.066;2022-07-29T12:19:56;2.88;;;1.20;;
23474;SDS011;11910;52.086;21.066;2022-07-29T12:24:52;3.15;;;1.18;;
23474;SDS011;11910;52.086;21.066;2022-07-29T12:27:19;13.88;;;1.30;;
23474;SDS011;11910;52.086;21.066;2022-07-29T12:29:45;5.53;;;1.42;;
23474;SDS011;11910;52.086;21.066;2022-07-29T12:32:21;3.40;;;1.20;;
23474;SDS011;11910;52.086;21.066;2022-07-29T12:34:47;2.17;;;1.13;;
23474;SDS011;11910;52.086;21.066;2022-07-29T12:37:13;6.88;;;1.13;;
23474;SDS011;11910;52.086;21.066;2022-07-29T12:39:39;5.82;;;1.45;;
23474;SDS011;11910;52.086;21.066;2022-07-29T12:42:12;4.25;;;1.10;;
23474;SDS011;11910;52.086;21.066;2022-07-29T12:44:48;2.35;;;1.10;;
23474;SDS011;11910;52.086;21.066;2022-07-29T12:47:15;15.52;;;1.75;;
23474;SDS011;11910;52.086;21.066;2022-07-29T12:49:41;7.90;;;1.35;;
23474;SDS011;11910;52.086;21.066;2022-07-29T12:52:49;4.47;;;1.30;;
23474;SDS011;11910;52.086;21.066;2022-07-29T12:54:57;7.32;;;1.17;;
23474;SDS011;11910;52.086;21.066;2022-07-29T12:57:23;4.78;;;1.02;;
23474;SDS011;11910;52.086;21.066;2022-07-29T13:00:03;6.13;;;1.30;;
23474;SDS011;11910;52.086;21.066;2022-07-29T13:02:38;5.57;;;1.13;;
23474;SDS011;11910;52.086;21.066;2022-07-29T13:05:06;1.98;;;1.25;;
23474;SDS011;11910;52.086;21.066;2022-07-29T13:07:36;4.88;;;1.02;;
23474;SDS011;11910;52.086;21.066;2022-07-29T13:10:12;3.08;;;1.00;;
23474;SDS011;11910;52.086;21.066;2022-07-29T13:12:39;3.78;;;0.98;;
23474;SDS011;11910;52.086;21.066;2022-07-29T13:15:31;2.58;;;1.10;;
23474;SDS011;11910;52.086;21.066;2022-07-29T13:17:58;1.70;;;0.80;;
23474;SDS011;11910;52.086;21.066;2022-07-29T13:20:24;7.13;;;1.30;;
23474;SDS011;11910;52.086;21.066;2022-07-29T13:22:54;2.40;;;1.10;;
23474;SDS011;11910;52.086;21.066;2022-07-29T13:25:25;2.55;;;1.20;;
23474;SDS011;11910;52.086;21.066;2022-07-29T13:27:55;9.20;;;1.25;;
23474;SDS011;11910;52.086;21.066;2022-07-29T13:30:21;5.40;;;1.10;;
23474;SDS011;11910;52.086;21.066;2022-07-29T13:32:47;5.60;;;1.40;;
23474;SDS011;11910;52.086;21.066;2022-07-29T13:35:13;4.20;;;1.10;;
23474;SDS011;11910;52.086;21.066;2022-07-29T13:37:38;3.22;;;0.88;;
23474;SDS011;11910;52.086;21.066;2022-07-29T13:40:05;1.88;;;1.02;;
23474;SDS011;11910;52.086;21.066;2022-07-29T13:42:32;1.95;;;0.93;;
23474;SDS011;11910;52.086;21.066;2022-07-29T13:44:58;3.13;;;1.00;;
23474;SDS011;11910;52.086;21.066;2022-07-29T13:47:25;4.95;;;1.02;;
23474;SDS011;11910;52.086;21.066;2022-07-29T13:49:51;1.85;;;1.00;;
23474;SDS011;11910;52.086;21.066;2022-07-29T13:52:18;1.52;;;1.05;;
23474;SDS011;11910;52.086;21.066;2022-07-29T13:54:44;9.35;;;1.42;;
23474;SDS011;11910;52.086;21.066;2022-07-29T13:57:10;3.13;;;1.08;;
23474;SDS011;11910;52.086;21.066;2022-07-29T13:59:36;4.97;;;1.40;;
23474;SDS011;11910;52.086;21.066;2022-07-29T14:02:02;3.67;;;1.02;;
23474;SDS011;11910;52.086;21.066;2022-07-29T14:04:28;4.45;;;1.20;;
23474;SDS011;11910;52.086;21.066;2022-07-29T14:06:54;1.88;;;0.93;;
23474;SDS011;11910;52.086;21.066;2022-07-29T14:09:19;2.95;;;1.00;;
23474;SDS011;11910;52.086;21.066;2022-07-29T14:11:45;4.85;;;1.48;;
23474;SDS011;11910;52.086;21.066;2022-07-29T14:14:12;6.00;;;1.20;;
23474;SDS011;11910;52.086;21.066;2022-07-29T14:16:38;1.45;;;1.13;;
23474;SDS011;11910;52.086;21.066;2022-07-29T14:19:04;1.95;;;0.93;;
23474;SDS011;11910;52.086;21.066;2022-07-29T14:21:29;3.55;;;1.17;;
23474;SDS011;11910;52.086;21.066;2022-07-29T14:23:55;3.35;;;1.35;;
23474;SDS011;11910;52.086;21.066;2022-07-29T14:26:21;1.73;;;1.13;;
23474;SDS011;11910;52.086;21.066;2022-07-29T14:28:47;6.90;;;1.20;;
23474;SDS011;11910;52.086;21.066;2022-07-29T14:31:13;4.85;;;1.23;;
23474;SDS011;11910;52.086;21.066;2022-07-29T14:33:40;2.10;;;1.10;;
23474;SDS011;11910;52.086;21.066;2022-07-29T14:36:06;3.38;;;1.27;;
23474;SDS011;11910;52.086;21.066;2022-07-29T14:38:31;8.80;;;1.10;;
23474;SDS011;11910;52.086;21.066;2022-07-29T14:40:57;5.35;;;1.40;;
23474;SDS011;11910;52.086;21.066;2022-07-29T14:43:23;3.10;;;1.10;;
23474;SDS011;11910;52.086;21.066;2022-07-29T14:45:48;2.75;;;1.10;;
23474;SDS011;11910;52.086;21.066;2022-07-29T14:48:14;2.97;;;1.30;;
23474;SDS011;11910;52.086;21.066;2022-07-29T14:50:40;2.53;;;1.20;;
23474;SDS011;11910;52.086;21.066;2022-07-29T14:53:05;4.80;;;1.30;;
23474;SDS011;11910;52.086;21.066;2022-07-29T14:55:31;4.00;;;1.20;;
23474;SDS011;11910;52.086;21.066;2022-07-29T14:57:57;2.50;;;1.25;;
23474;SDS011;11910;52.086;21.066;2022-07-29T15:00:23;4.00;;;1.10;;
23474;SDS011;11910;52.086;21.066;2022-07-29T15:02:49;4.18;;;1.08;;
23474;SDS011;11910;52.086;21.066;2022-07-29T15:05:15;4.25;;;1.50;;
23474;SDS011;11910;52.086;21.066;2022-07-29T15:07:40;1.55;;;1.08;;
23474;SDS011;11910;52.086;21.066;2022-07-29T15:10:06;3.63;;;1.23;;
23474;SDS011;11910;52.086;21.066;2022-07-29T15:12:32;2.15;;;1.15;;
23474;SDS011;11910;52.086;21.066;2022-07-29T15:14:58;3.35;;;1.10;;
23474;SDS011;11910;52.086;21.066;2022-07-29T15:17:24;4.18;;;1.20;;
23474;SDS011;11910;52.086;21.066;2022-07-29T15:19:50;3.58;;;1.20;;
23474;SDS011;11910;52.086;21.066;2022-07-29T15:22:15;4.20;;;1.00;;
23474;SDS011;11910;52.086;21.066;2022-07-29T15:24:42;4.82;;;1.23;;
23474;SDS011;11910;52.086;21.066;2022-07-29T15:27:08;3.97;;;0.95;;